Ahsahka, ID (83520)

3:41 AM PDT on August 27, 2016 (GMT -0700)
Riverside | | Change Station
Active Advisory: Fire Weather Warning

Elev 994 ft 46.50 °N, 116.30 °W | Updated 60 seconds ago

Clear
Clear
56.5 °F
Feels Like 56.5 °F
N
1.8
Wind Variable Wind from SSE
Gusts 2.0 mph

Today
High -- | Low -- °F
--% Chance of Precip.
Yesterday
High -- | Low -- °F
Precip. -- in
Pressure 29.77 in
Visibility 10.0 miles
Clouds Clear
Dew Point 23 °F
Humidity 27%
Rainfall 0.00 in
Snow Depth Not available.
5:59 AM 7:32 PM
Waning Crescent, 25% visible
METAR KLWS 270956Z AUTO 00000KT 10SM CLR 18/03 A2980 RMK AO2 SLP081 T01830028
Pressure 29.77 in
Visibility 10.0 miles
Clouds Clear
Dew Point 23 °F
Humidity 27%
Rainfall 0.00 in
Snow Depth Not available.
5:59 AM 7:32 PM
Waning Crescent, 25% visible
METAR KLWS 270956Z AUTO 00000KT 10SM CLR 18/03 A2980 RMK AO2 SLP081 T01830028

10-Day Weather Forecast

Almanac

Astronomy

Aug. 27, 2016 Rise Set
Actual Time
Civil Twilight
Nautical Twilight
Astronomical Twilight
Moon
Length of Visible Light
Length of Day
Tomorrow will be .
, % of the Moon is Illuminated

Today's Extremes

State Highs State Lows

Community

WunderPhotos

Upload Photos

1,935,321 photos uploaded!

WunderBlog® & News

Nearby

Air Quality

  Air Quality AQ Index Pollutant
Not available.

Snow Depth

Station Depth Elevation

Earthquake Activity

City Distance Mag. Time & Date
Minimum magnitude displayed is 2.5.

Coastal Water Temperatures

Place Temperature

Stations

Nearby Weather Stations

Station Location Temp. Windchill Dew Point Humidity Wind Precip. Elev Updated Type
                   

Watches & Warnings

Fire Weather Warning
Issued: 8:28 AM PDT Aug. 26, 2016 – National Weather Service

... Red flag warning in effect from 1 PM to 9 PM PDT Saturday...

* affected area:
   fire zone 102 (palouse/hells canyon).

* Winds: west at 15-20 mph with gusts around 30 mph in the
afternoon and evening.

* Minimum humidities: 10-18 percent.